This is the latest recevied weather packets stored in our database for station/object KC1HBM. If no packets are shown the sender has not sent any weather packets the latest 10 day(s).
| Time | Temp. | Humidity | Pressure | Rain* | Wind** | Luminosity | Snow |
|---|---|---|---|---|---|---|---|
| 1788622807 | 20.56° C | 81% | 1008.3 hPa | 0 mm | - | 49 W/m² | - |
| 1788622503 | 20.56° C | 80% | 1008.3 hPa | 0 mm | - | 32 W/m² | - |
| 1788622203 | 21.11° C | 78% | 1008.3 hPa | 0 mm | - | 88 W/m² | - |
| 1788621903 | 21.11° C | 79% | 1008.4 hPa | 0 mm | - | 328 W/m² | - |
| 1788621597 | 20.56° C | 84% | 1008.4 hPa | 0 mm | - | 598 W/m² | - |
| 1788621292 | 20.56° C | 83% | 1008.4 hPa | 0 mm | - | 132 W/m² | - |
| 1788620987 | 20.56° C | 82% | 1008.3 hPa | 0 mm | - | 129 W/m² | - |
| 1788620710 | 20° C | 83% | 1008.4 hPa | 0 mm | - | 124 W/m² | - |
| 1788620378 | 20° C | 83% | 1008.5 hPa | 0 mm | - | 52 W/m² | - |
| 1788620073 | 20° C | 82% | 1008.5 hPa | 0 mm | - | 72 W/m² | - |
| 1788619773 | 20° C | 83% | 1008.4 hPa | 0 mm | - | 137 W/m² | - |
| 1788619468 | 20° C | 82% | 1008.6 hPa | 0 mm | - | 167 W/m² | - |
| 1788619167 | 20° C | 82% | 1008.3 hPa | 0 mm | - | 137 W/m² | - |
| 1788618861 | 20° C | 82% | 1008.1 hPa | 0 mm | - | 127 W/m² | - |
| 1788618555 | 20° C | 83% | 1008.3 hPa | 0 mm | - | 147 W/m² | - |
| 1788618254 | 20° C | 82% | 1008.2 hPa | 0 mm | - | 104 W/m² | - |
| 1788617950 | 20.56° C | 79% | 1008.1 hPa | 0 mm | - | 120 W/m² | - |
| 1788617645 | 20.56° C | 80% | 1008.3 hPa | 0 mm | - | 173 W/m² | - |
| 1788617341 | 21.11° C | 77% | 1008 hPa | 0 mm | - | 304 W/m² | - |
| 1788617035 | 20.56° C | 80% | 1007.8 hPa | 0 mm | - | 229 W/m² | - |
| 1788616734 | 20.56° C | 79% | 1007.9 hPa | 0 mm | - | 475 W/m² | - |
| 1788616430 | 19.44° C | 82% | 1008 hPa | 0 mm | - | 306 W/m² | - |
| 1788616126 | 19.44° C | 84% | 1007.7 hPa | 0 mm | - | 164 W/m² | - |
| 1788615824 | 19.44° C | 84% | 1007.7 hPa | 0 mm | - | 151 W/m² | - |
| 1788615519 | 19.44° C | 84% | 1007.8 hPa | 0 mm | - | 95 W/m² | - |
* Rain latest hour (hover to see other rain measurements)
** Current wind speed in m/s (hover to see current wind gust speed)